createdAt,value
2023-03-27T00:00:04.483Z,290.00
2023-03-27T00:01:04.407Z,335.00
2023-03-27T00:02:04.426Z,350.00
2023-03-27T00:03:04.496Z,337.00
2023-03-27T00:04:04.387Z,334.00
2023-03-27T00:05:04.362Z,350.00
2023-03-27T00:06:04.370Z,337.00
2023-03-27T00:07:04.338Z,328.00
2023-03-27T00:08:04.341Z,311.00
2023-03-27T00:09:04.315Z,332.00
2023-03-27T00:10:04.309Z,329.00
2023-03-27T00:11:04.303Z,329.00
2023-03-27T00:12:04.498Z,338.00
2023-03-27T00:13:04.258Z,351.00
2023-03-27T00:14:04.250Z,340.00
2023-03-27T00:15:04.213Z,338.00
2023-03-27T00:16:04.251Z,342.00
2023-03-27T00:17:04.238Z,359.00
2023-03-27T00:18:04.279Z,363.00
2023-03-27T00:19:04.164Z,375.00
2023-03-27T00:20:04.164Z,396.00
2023-03-27T00:21:04.167Z,396.00
2023-03-27T00:22:04.196Z,390.00
2023-03-27T00:23:04.145Z,392.00
2023-03-27T00:24:04.109Z,382.00
2023-03-27T00:25:04.111Z,382.00
2023-03-27T00:26:04.129Z,380.00
2023-03-27T00:27:04.087Z,390.00
2023-03-27T00:28:04.081Z,400.00
2023-03-27T00:29:04.055Z,395.00
2023-03-27T00:30:04.093Z,406.00
2023-03-27T00:31:04.020Z,407.00
2023-03-27T00:32:04.017Z,401.00
2023-03-27T00:33:04.076Z,402.00
2023-03-27T00:34:03.985Z,377.00
2023-03-27T00:35:03.972Z,368.00
2023-03-27T00:36:03.989Z,369.00
2023-03-27T00:37:03.963Z,375.00
2023-03-27T00:38:03.917Z,381.00
2023-03-27T00:39:03.938Z,378.00
2023-03-27T00:40:03.918Z,393.00
2023-03-27T00:41:03.937Z,382.00
2023-03-27T00:42:03.905Z,392.00
2023-03-27T00:43:03.878Z,432.00
2023-03-27T00:44:03.849Z,421.00
2023-03-27T00:45:03.852Z,418.00
2023-03-27T00:46:03.854Z,417.00
2023-03-27T00:47:03.790Z,397.00
2023-03-27T00:48:03.810Z,420.00
2023-03-27T00:49:03.811Z,415.00
2023-03-27T00:50:03.815Z,413.00
2023-03-27T00:51:03.766Z,411.00
2023-03-27T00:52:03.817Z,432.00
2023-03-27T00:53:03.724Z,411.00
2023-03-27T00:54:03.719Z,413.00
2023-03-27T00:55:03.709Z,397.00
2023-03-27T00:56:03.773Z,367.00
2023-03-27T00:57:03.693Z,342.00
2023-03-27T00:58:03.662Z,334.00
2023-03-27T00:59:03.647Z,330.00
2023-03-27T01:00:03.621Z,323.00
2023-03-27T01:01:03.673Z,308.00
2023-03-27T01:02:03.609Z,294.00
2023-03-27T01:03:03.643Z,292.00
2023-03-27T01:04:03.568Z,290.00
2023-03-27T01:05:03.553Z,287.00
2023-03-27T01:06:03.591Z,279.00
2023-03-27T01:07:03.544Z,283.00
2023-03-27T01:08:03.525Z,284.00
2023-03-27T01:09:03.518Z,285.00
2023-03-27T01:10:03.498Z,283.00
2023-03-27T01:11:03.464Z,292.00
2023-03-27T01:12:03.479Z,326.00
2023-03-27T01:13:03.457Z,322.00
2023-03-27T01:14:03.447Z,326.00
2023-03-27T01:15:03.405Z,372.00
2023-03-27T01:16:03.442Z,376.00
2023-03-27T01:17:03.431Z,378.00
2023-03-27T01:18:03.447Z,380.00
2023-03-27T01:19:03.404Z,377.00
2023-03-27T01:20:03.366Z,374.00
2023-03-27T01:21:03.325Z,377.00
2023-03-27T01:22:03.378Z,390.00
2023-03-27T01:23:03.316Z,399.00
2023-03-27T01:24:03.340Z,409.00
2023-03-27T01:25:03.286Z,431.00
2023-03-27T01:26:03.273Z,418.00
2023-03-27T01:27:03.276Z,416.00
2023-03-27T01:28:03.282Z,420.00
2023-03-27T01:29:03.244Z,407.00
2023-03-27T01:30:03.243Z,397.00
2023-03-27T01:31:03.264Z,393.00
2023-03-27T01:32:03.221Z,398.00
2023-03-27T01:33:03.233Z,410.00
2023-03-27T01:34:03.183Z,411.00
2023-03-27T01:35:03.660Z,410.00
2023-03-27T01:36:03.173Z,420.00
2023-03-27T01:37:03.134Z,412.00
2023-03-27T01:38:03.108Z,417.00
2023-03-27T01:39:03.097Z,379.00
2023-03-27T01:40:03.080Z,409.00
2023-03-27T01:41:03.107Z,405.00
2023-03-27T01:42:03.083Z,398.00
2023-03-27T01:43:03.044Z,373.00
2023-03-27T01:44:03.029Z,346.00
2023-03-27T01:45:03.039Z,328.00
2023-03-27T01:46:03.001Z,329.00
2023-03-27T01:47:03.008Z,320.00
2023-03-27T01:48:03.042Z,317.00
2023-03-27T01:49:02.982Z,317.00
2023-03-27T01:50:02.983Z,321.00
2023-03-27T01:51:02.926Z,334.00
2023-03-27T01:52:02.992Z,327.00
2023-03-27T01:53:02.919Z,326.00
2023-03-27T01:54:02.920Z,323.00
2023-03-27T01:55:02.888Z,323.00
2023-03-27T01:56:02.866Z,333.00
2023-03-27T01:57:02.909Z,347.00
2023-03-27T01:58:02.855Z,358.00
2023-03-27T01:59:02.850Z,364.00
2023-03-27T02:00:18.386Z,349.00
2023-03-27T02:01:02.858Z,331.00
2023-03-27T02:02:02.833Z,329.00
2023-03-27T02:03:02.810Z,335.00
2023-03-27T02:04:02.786Z,332.00
2023-03-27T02:05:02.767Z,327.00
2023-03-27T02:06:02.793Z,331.00
2023-03-27T02:07:02.732Z,332.00
2023-03-27T02:08:02.717Z,330.00
2023-03-27T02:09:02.688Z,324.00
2023-03-27T02:10:02.701Z,323.00
2023-03-27T02:11:02.670Z,327.00
2023-03-27T02:12:02.713Z,331.00
2023-03-27T02:13:02.652Z,341.00
2023-03-27T02:14:02.639Z,383.00
2023-03-27T02:15:23.053Z,375.00
2023-03-27T02:16:02.616Z,406.00
2023-03-27T02:17:02.584Z,411.00
2023-03-27T02:18:02.637Z,418.00
2023-03-27T02:19:02.567Z,415.00
2023-03-27T02:20:02.565Z,397.00
2023-03-27T02:21:02.543Z,384.00
2023-03-27T02:22:02.533Z,358.00
2023-03-27T02:23:02.494Z,349.00
2023-03-27T02:24:02.591Z,320.00
2023-03-27T02:25:02.506Z,320.00
2023-03-27T02:26:02.488Z,325.00
2023-03-27T02:27:02.497Z,330.00
2023-03-27T02:28:02.435Z,331.00
2023-03-27T02:29:02.452Z,330.00
2023-03-27T02:30:02.474Z,333.00
2023-03-27T02:31:06.984Z,331.00
2023-03-27T02:32:02.571Z,283.00
2023-03-27T02:33:02.479Z,332.00
2023-03-27T02:34:02.359Z,338.00
2023-03-27T02:35:02.352Z,331.00
2023-03-27T02:36:02.353Z,362.00
2023-03-27T02:37:02.411Z,381.00
2023-03-27T02:38:02.319Z,414.00
2023-03-27T02:39:02.319Z,410.00
2023-03-27T02:40:02.364Z,415.00
2023-03-27T02:41:02.269Z,426.00
2023-03-27T02:42:02.248Z,433.00
2023-03-27T02:43:02.287Z,426.00
2023-03-27T02:44:02.217Z,416.00
2023-03-27T02:45:02.253Z,424.00
2023-03-27T02:46:02.245Z,412.00
2023-03-27T02:47:02.214Z,415.00
2023-03-27T02:48:02.246Z,418.00
2023-03-27T02:49:02.156Z,395.00
2023-03-27T02:50:02.167Z,412.00
2023-03-27T02:51:02.187Z,404.00
2023-03-27T02:52:02.128Z,413.00
2023-03-27T02:53:02.163Z,409.00
2023-03-27T02:54:02.093Z,416.00
2023-03-27T02:55:02.130Z,401.00
2023-03-27T02:56:02.060Z,387.00
2023-03-27T02:57:02.140Z,365.00
2023-03-27T02:58:02.052Z,345.00
2023-03-27T02:59:02.043Z,340.00
2023-03-27T03:00:02.035Z,331.00
2023-03-27T03:01:02.036Z,312.00
2023-03-27T03:02:02.004Z,334.00
2023-03-27T03:03:02.069Z,384.00
2023-03-27T03:04:01.972Z,384.00
2023-03-27T03:05:01.963Z,390.00
2023-03-27T03:06:01.926Z,418.00
2023-03-27T03:07:01.918Z,416.00
2023-03-27T03:08:01.941Z,421.00
2023-03-27T03:09:01.908Z,434.00
2023-03-27T03:10:01.869Z,414.00
2023-03-27T03:11:01.934Z,424.00
2023-03-27T03:12:01.878Z,419.00
2023-03-27T03:13:01.850Z,421.00
2023-03-27T03:14:01.834Z,430.00
2023-03-27T03:15:01.811Z,420.00
2023-03-27T03:16:01.831Z,428.00
2023-03-27T03:17:01.851Z,432.00
2023-03-27T03:18:01.819Z,436.00
2023-03-27T03:19:01.794Z,403.00
2023-03-27T03:20:01.767Z,395.00
2023-03-27T03:21:01.751Z,395.00
2023-03-27T03:22:01.753Z,387.00
2023-03-27T03:23:01.738Z,381.00
2023-03-27T03:24:01.706Z,384.00
2023-03-27T03:25:01.714Z,395.00
2023-03-27T03:26:01.690Z,370.00
2023-03-27T03:27:01.682Z,373.00
2023-03-27T03:28:01.675Z,380.00
2023-03-27T03:29:01.905Z,371.00
2023-03-27T03:30:01.614Z,410.00
2023-03-27T03:31:01.671Z,381.00
2023-03-27T03:32:01.625Z,376.00
2023-03-27T03:33:01.651Z,380.00
2023-03-27T03:34:01.571Z,381.00
2023-03-27T03:35:01.755Z,417.00
2023-03-27T03:36:01.593Z,417.00
2023-03-27T03:37:01.530Z,429.00
2023-03-27T03:38:01.526Z,440.00
2023-03-27T03:39:01.514Z,433.00
2023-03-27T03:40:01.511Z,429.00
2023-03-27T03:41:01.476Z,435.00
2023-03-27T03:42:01.476Z,421.00
2023-03-27T03:43:01.445Z,405.00
2023-03-27T03:44:01.440Z,386.00
2023-03-27T03:45:01.465Z,346.00
2023-03-27T03:46:01.462Z,344.00
2023-03-27T03:47:01.402Z,357.00
2023-03-27T03:48:01.489Z,386.00
2023-03-27T03:49:01.380Z,402.00
2023-03-27T03:50:01.356Z,437.00
2023-03-27T03:51:01.347Z,422.00
2023-03-27T03:52:04.505Z,418.00
2023-03-27T03:53:01.332Z,408.00
2023-03-27T03:54:01.325Z,366.00
2023-03-27T03:55:01.328Z,358.00
2023-03-27T03:56:01.260Z,367.00
2023-03-27T03:57:01.292Z,372.00
2023-03-27T03:58:01.249Z,338.00
2023-03-27T03:59:01.265Z,315.00
2023-03-27T04:00:01.228Z,244.00
2023-03-27T04:01:01.223Z,213.00
2023-03-27T04:02:01.253Z,201.00
2023-03-27T04:03:01.276Z,209.00
2023-03-27T04:04:01.172Z,240.00
2023-03-27T04:05:01.156Z,251.00
2023-03-27T04:06:01.174Z,313.00
2023-03-27T04:07:01.128Z,280.00
2023-03-27T04:08:01.117Z,277.00
2023-03-27T04:09:01.116Z,282.00
2023-03-27T04:10:01.101Z,266.00
2023-03-27T04:11:01.128Z,250.00
2023-03-27T04:12:01.118Z,232.00
2023-03-27T04:13:01.137Z,235.00
2023-03-27T04:14:01.109Z,241.00
2023-03-27T04:15:01.018Z,257.00
2023-03-27T04:16:01.059Z,261.00
2023-03-27T04:17:01.031Z,256.00
2023-03-27T04:18:01.205Z,261.00
2023-03-27T04:19:00.978Z,295.00
2023-03-27T04:20:00.971Z,302.00
2023-03-27T04:21:00.965Z,301.00
2023-03-27T04:22:00.925Z,288.00
2023-03-27T04:23:00.973Z,253.00
2023-03-27T04:24:00.917Z,237.00
2023-03-27T04:25:00.920Z,256.00
2023-03-27T04:26:00.976Z,318.00
2023-03-27T04:27:00.894Z,363.00
2023-03-27T04:28:00.862Z,374.00
2023-03-27T04:29:00.883Z,382.00
2023-03-27T04:30:00.845Z,410.00
2023-03-27T04:31:00.896Z,426.00
2023-03-27T04:32:00.816Z,441.00
2023-03-27T04:33:00.846Z,435.00
2023-03-27T04:34:00.770Z,436.00
2023-03-27T04:35:00.814Z,416.00
2023-03-27T04:36:07.429Z,418.00
2023-03-27T04:37:00.782Z,380.00
2023-03-27T04:38:00.736Z,436.00
2023-03-27T04:39:00.736Z,403.00
2023-03-27T04:40:00.705Z,398.00
2023-03-27T04:41:00.728Z,387.00
2023-03-27T04:42:00.781Z,374.00
2023-03-27T04:43:00.696Z,351.00
2023-03-27T04:44:00.704Z,302.00
2023-03-27T04:45:00.661Z,295.00
2023-03-27T04:46:00.640Z,299.00
2023-03-27T04:47:00.688Z,337.00
2023-03-27T04:48:00.688Z,378.00
2023-03-27T04:49:00.624Z,395.00
2023-03-27T04:50:00.575Z,453.00
2023-03-27T04:51:00.596Z,422.00
2023-03-27T04:52:00.550Z,432.00
2023-03-27T04:53:00.594Z,421.00
2023-03-27T04:54:00.545Z,423.00
2023-03-27T04:55:00.537Z,410.00
2023-03-27T04:56:00.516Z,421.00
2023-03-27T04:57:00.537Z,412.00
2023-03-27T04:58:00.506Z,420.00
2023-03-27T04:59:00.462Z,412.00
2023-03-27T05:00:00.442Z,418.00
2023-03-27T05:01:00.659Z,422.00
2023-03-27T05:02:00.468Z,409.00
2023-03-27T05:03:00.590Z,417.00
2023-03-27T05:04:00.473Z,416.00
2023-03-27T05:05:00.399Z,418.00
2023-03-27T05:06:00.409Z,429.00
2023-03-27T05:07:00.385Z,413.00
2023-03-27T05:08:00.377Z,382.00
2023-03-27T05:09:00.352Z,346.00
2023-03-27T05:10:00.339Z,334.00
2023-03-27T05:11:00.313Z,321.00
2023-03-27T05:12:00.287Z,302.00
2023-03-27T05:13:00.291Z,322.00
2023-03-27T05:14:00.294Z,336.00
2023-03-27T05:15:00.268Z,351.00
2023-03-27T05:16:00.280Z,344.00
2023-03-27T05:17:00.271Z,345.00
2023-03-27T05:18:00.265Z,333.00
2023-03-27T05:19:00.253Z,329.00
2023-03-27T05:20:00.242Z,320.00
2023-03-27T05:21:00.178Z,314.00
2023-03-27T05:22:00.196Z,317.00
2023-03-27T05:23:00.170Z,316.00
2023-03-27T05:24:00.205Z,320.00
2023-03-27T05:25:00.140Z,320.00
2023-03-27T05:26:00.993Z,324.00
2023-03-27T05:27:00.126Z,323.00
2023-03-27T05:28:00.130Z,331.00
2023-03-27T05:29:00.119Z,350.00
2023-03-27T05:30:00.149Z,349.00
2023-03-27T05:31:00.404Z,326.00
2023-03-27T05:32:01.420Z,305.00
2023-03-27T05:33:00.036Z,306.00
2023-03-27T05:34:00.000Z,302.00
2023-03-27T05:35:00.042Z,302.00
2023-03-27T05:36:00.017Z,300.00
2023-03-27T05:36:59.986Z,291.00
2023-03-27T05:37:59.964Z,301.00
2023-03-27T05:38:59.964Z,315.00
2023-03-27T05:39:59.969Z,335.00
2023-03-27T05:40:59.922Z,338.00
2023-03-27T05:41:59.927Z,374.00
2023-03-27T05:42:59.898Z,399.00
2023-03-27T05:43:59.883Z,409.00
2023-03-27T05:44:59.921Z,434.00
2023-03-27T05:45:59.898Z,440.00
2023-03-27T05:46:59.880Z,378.00
2023-03-27T05:47:59.893Z,278.00
2023-03-27T05:48:59.834Z,234.00
2023-03-27T05:49:59.853Z,225.00
2023-03-27T05:50:59.805Z,249.00
2023-03-27T05:51:59.807Z,296.00
2023-03-27T05:52:59.803Z,307.00
2023-03-27T05:53:59.755Z,314.00
2023-03-27T05:54:59.756Z,311.00
2023-03-27T05:56:02.493Z,305.00
2023-03-27T05:56:59.797Z,282.00
2023-03-27T05:57:59.726Z,251.00
2023-03-27T05:58:59.690Z,231.00
2023-03-27T05:59:59.695Z,240.00
2023-03-27T06:00:59.707Z,259.00
2023-03-27T06:01:59.643Z,271.00
2023-03-27T06:02:59.721Z,309.00
2023-03-27T06:03:59.754Z,340.00
2023-03-27T06:04:59.656Z,355.00
2023-03-27T06:05:59.650Z,358.00
2023-03-27T06:06:59.598Z,361.00
2023-03-27T06:07:59.600Z,366.00
2023-03-27T06:08:59.620Z,421.00
2023-03-27T06:09:59.578Z,414.00
2023-03-27T06:10:59.646Z,428.00
2023-03-27T06:11:59.571Z,425.00
2023-03-27T06:12:59.581Z,422.00
2023-03-27T06:13:59.559Z,426.00
2023-03-27T06:14:59.528Z,414.00
2023-03-27T06:15:59.925Z,415.00
2023-03-27T06:16:59.540Z,402.00
2023-03-27T06:17:59.496Z,382.00
2023-03-27T06:18:59.438Z,342.00
2023-03-27T06:19:59.442Z,329.00
2023-03-27T06:20:59.475Z,336.00
2023-03-27T06:21:59.475Z,336.00
2023-03-27T06:22:59.421Z,283.00
2023-03-27T06:23:59.394Z,289.00
2023-03-27T06:24:59.436Z,287.00
2023-03-27T06:25:59.396Z,293.00
2023-03-27T06:26:59.384Z,344.00
2023-03-27T06:27:59.358Z,340.00
2023-03-27T06:28:59.347Z,349.00
2023-03-27T06:29:59.297Z,346.00
2023-03-27T06:30:59.361Z,348.00
2023-03-27T06:31:59.274Z,341.00
2023-03-27T06:32:59.328Z,326.00
2023-03-27T06:33:59.247Z,306.00
2023-03-27T06:34:59.280Z,296.00
2023-03-27T06:35:59.757Z,294.00
2023-03-27T06:36:59.228Z,327.00
2023-03-27T06:37:59.238Z,329.00
2023-03-27T06:38:59.220Z,333.00
2023-03-27T06:39:59.239Z,338.00
2023-03-27T06:40:59.164Z,336.00
2023-03-27T06:41:59.164Z,334.00
2023-03-27T06:42:59.126Z,369.00
2023-03-27T06:43:59.137Z,343.00
2023-03-27T06:44:59.139Z,296.00
2023-03-27T06:45:59.245Z,320.00
2023-03-27T06:46:59.117Z,332.00
2023-03-27T06:48:15.325Z,324.00
2023-03-27T06:48:59.057Z,313.00
2023-03-27T06:49:59.068Z,291.00
2023-03-27T06:50:59.183Z,304.00
2023-03-27T06:51:59.033Z,318.00
2023-03-27T06:52:59.018Z,294.00
2023-03-27T06:53:58.996Z,294.00
2023-03-27T06:54:58.992Z,291.00
2023-03-27T06:55:59.185Z,294.00
2023-03-27T06:56:59.021Z,294.00
2023-03-27T06:57:58.952Z,289.00
2023-03-27T06:58:58.938Z,281.00
2023-03-27T07:00:01.677Z,284.00
2023-03-27T07:00:58.891Z,281.00
2023-03-27T07:01:58.918Z,283.00
2023-03-27T07:02:58.948Z,283.00
2023-03-27T07:03:58.892Z,323.00
2023-03-27T07:05:04.926Z,309.00
2023-03-27T07:05:59.059Z,299.00
2023-03-27T07:06:58.821Z,295.00
2023-03-27T07:08:01.190Z,285.00
2023-03-27T07:08:58.812Z,282.00
2023-03-27T07:09:58.777Z,280.00
2023-03-27T07:11:10.764Z,275.00
2023-03-27T07:11:58.759Z,279.00
2023-03-27T07:12:58.728Z,309.00
2023-03-27T07:13:58.784Z,320.00
2023-03-27T07:14:58.726Z,319.00
2023-03-27T07:15:58.745Z,317.00
2023-03-27T07:16:58.692Z,420.00
2023-03-27T07:17:58.676Z,441.00
2023-03-27T07:19:01.687Z,431.00
2023-03-27T07:19:58.940Z,420.00
2023-03-27T07:20:58.984Z,411.00
2023-03-27T07:21:58.624Z,292.00
2023-03-27T07:22:58.619Z,265.00
2023-03-27T07:23:58.602Z,341.00
2023-03-27T07:24:58.599Z,330.00
2023-03-27T07:25:58.924Z,325.00
2023-03-27T07:26:58.555Z,243.00
2023-03-27T07:27:58.570Z,246.00
2023-03-27T07:29:00.132Z,228.00
2023-03-27T07:29:58.536Z,270.00
2023-03-27T07:30:58.724Z,240.00
2023-03-27T07:32:01.583Z,318.00
2023-03-27T07:32:58.525Z,399.00
2023-03-27T07:33:58.547Z,410.00
2023-03-27T07:34:58.476Z,317.00
2023-03-27T07:35:58.798Z,301.00
2023-03-27T07:36:58.435Z,270.00
2023-03-27T07:37:58.441Z,274.00
2023-03-27T07:38:58.385Z,274.00
2023-03-27T07:39:58.421Z,278.00
2023-03-27T07:40:58.363Z,277.00
2023-03-27T07:41:58.402Z,287.00
2023-03-27T07:42:58.353Z,285.00
2023-03-27T07:43:58.364Z,281.00
2023-03-27T07:44:58.333Z,273.00
2023-03-27T07:45:58.533Z,273.00
2023-03-27T07:46:58.298Z,289.00
2023-03-27T07:47:58.333Z,285.00
2023-03-27T07:48:58.274Z,280.00
2023-03-27T07:49:58.292Z,293.00
2023-03-27T07:51:03.573Z,337.00
2023-03-27T07:51:58.239Z,413.00
2023-03-27T07:52:58.206Z,345.00
2023-03-27T07:53:58.233Z,394.00
2023-03-27T07:54:58.191Z,411.00
2023-03-27T07:55:58.245Z,320.00
2023-03-27T07:56:58.209Z,322.00
2023-03-27T07:58:01.616Z,322.00
2023-03-27T07:58:58.146Z,286.00
2023-03-27T07:59:58.155Z,281.00
2023-03-27T08:00:58.128Z,279.00
2023-03-27T08:01:58.114Z,286.00
2023-03-27T08:02:58.195Z,331.00
2023-03-27T08:03:58.179Z,318.00
2023-03-27T08:04:58.201Z,309.00
2023-03-27T08:05:58.357Z,295.00
2023-03-27T08:06:58.046Z,284.00
2023-03-27T08:07:58.040Z,286.00
2023-03-27T08:08:58.017Z,282.00
2023-03-27T08:09:57.998Z,312.00
2023-03-27T08:10:57.980Z,416.00
2023-03-27T08:11:57.979Z,417.00
2023-03-27T08:12:57.956Z,369.00
2023-03-27T08:13:57.944Z,328.00
2023-03-27T08:14:57.912Z,317.00
2023-03-27T08:15:58.183Z,392.00
2023-03-27T08:17:12.345Z,310.00
2023-03-27T08:17:57.942Z,291.00
2023-03-27T08:18:57.881Z,289.00
2023-03-27T08:19:57.893Z,345.00
2023-03-27T08:20:57.834Z,309.00
2023-03-27T08:21:57.859Z,298.00
2023-03-27T08:22:57.859Z,289.00
2023-03-27T08:23:57.921Z,283.00
2023-03-27T08:24:57.804Z,290.00
2023-03-27T08:25:57.799Z,303.00
2023-03-27T08:26:57.785Z,302.00
2023-03-27T08:27:57.769Z,304.00
2023-03-27T08:28:57.761Z,298.00
2023-03-27T08:29:57.747Z,285.00
2023-03-27T08:31:02.504Z,305.00
2023-03-27T08:31:57.733Z,295.00
2023-03-27T08:32:57.762Z,289.00
2023-03-27T08:33:57.674Z,288.00
2023-03-27T08:34:57.644Z,283.00
2023-03-27T08:35:57.901Z,282.00
2023-03-27T08:36:57.650Z,281.00
2023-03-27T08:37:57.653Z,282.00
2023-03-27T08:38:57.624Z,308.00
2023-03-27T08:39:57.631Z,325.00
2023-03-27T08:40:57.589Z,304.00
2023-03-27T08:41:57.596Z,447.00
2023-03-27T08:42:57.556Z,356.00
2023-03-27T08:43:57.562Z,251.00
2023-03-27T08:44:57.545Z,329.00
2023-03-27T08:45:57.734Z,335.00
2023-03-27T08:46:57.524Z,297.00
2023-03-27T08:47:57.518Z,295.00
2023-03-27T08:48:57.483Z,301.00
2023-03-27T08:49:57.501Z,309.00
2023-03-27T08:50:57.443Z,314.00
2023-03-27T08:51:57.428Z,395.00
2023-03-27T08:52:57.428Z,330.00
2023-03-27T08:53:57.405Z,335.00
2023-03-27T08:54:57.431Z,333.00
2023-03-27T08:55:57.671Z,329.00
2023-03-27T08:56:57.372Z,325.00
2023-03-27T08:57:57.349Z,333.00
2023-03-27T08:58:57.326Z,398.00
2023-03-27T08:59:57.338Z,294.00
2023-03-27T09:00:57.313Z,306.00
2023-03-27T09:01:57.339Z,353.00
2023-03-27T09:02:57.391Z,337.00
2023-03-27T09:03:57.403Z,369.00
2023-03-27T09:04:57.268Z,290.00
2023-03-27T09:05:57.378Z,337.00
2023-03-27T09:06:57.242Z,329.00
2023-03-27T09:07:57.217Z,330.00
2023-03-27T09:08:57.246Z,399.00
2023-03-27T09:09:57.210Z,371.00
2023-03-27T09:10:57.212Z,350.00
2023-03-27T09:11:57.204Z,396.00
2023-03-27T09:12:57.147Z,449.00
2023-03-27T09:13:57.136Z,412.00
2023-03-27T09:14:57.134Z,338.00
2023-03-27T09:15:57.367Z,276.00
2023-03-27T09:16:57.122Z,298.00
2023-03-27T09:17:57.120Z,294.00
2023-03-27T09:18:57.132Z,291.00
2023-03-27T09:19:57.061Z,387.00
2023-03-27T09:20:57.058Z,341.00
2023-03-27T09:21:57.052Z,370.00
2023-03-27T09:22:57.024Z,256.00
2023-03-27T09:23:57.032Z,332.00
2023-03-27T09:24:57.002Z,354.00
2023-03-27T09:25:57.233Z,361.00
2023-03-27T09:27:06.647Z,235.00
2023-03-27T09:27:56.991Z,351.00
2023-03-27T09:28:56.955Z,367.00
2023-03-27T09:30:05.458Z,318.00
2023-03-27T09:30:56.958Z,299.00
2023-03-27T09:31:56.907Z,391.00
2023-03-27T09:32:56.930Z,331.00
2023-03-27T09:33:56.910Z,299.00
2023-03-27T09:34:56.878Z,274.00
2023-03-27T09:35:57.116Z,296.00
2023-03-27T09:36:56.835Z,254.00
2023-03-27T09:37:56.821Z,231.00
2023-03-27T09:38:56.822Z,252.00
2023-03-27T09:39:56.816Z,278.00
2023-03-27T09:40:56.775Z,298.00
2023-03-27T09:41:56.780Z,308.00
2023-03-27T09:42:56.781Z,312.00
2023-03-27T09:43:56.772Z,316.00
2023-03-27T09:44:56.766Z,319.00
2023-03-27T09:45:56.823Z,324.00
2023-03-27T09:46:56.815Z,326.00
2023-03-27T09:47:56.750Z,328.00
2023-03-27T09:48:56.683Z,330.00
2023-03-27T09:49:56.675Z,335.00
2023-03-27T09:50:56.911Z,329.00
2023-03-27T09:51:56.637Z,327.00
2023-03-27T09:52:56.615Z,327.00
2023-03-27T09:53:56.633Z,338.00
2023-03-27T09:54:56.626Z,337.00
2023-03-27T09:55:56.599Z,327.00
2023-03-27T09:56:56.612Z,324.00
2023-03-27T09:57:56.579Z,325.00
2023-03-27T09:58:56.556Z,327.00
2023-03-27T09:59:56.564Z,329.00
2023-03-27T10:00:56.644Z,329.00
2023-03-27T10:01:56.505Z,336.00
2023-03-27T10:02:56.521Z,335.00
2023-03-27T10:03:56.530Z,337.00
2023-03-27T10:04:56.488Z,341.00
2023-03-27T10:05:56.515Z,336.00
2023-03-27T10:06:56.483Z,338.00
2023-03-27T10:07:56.450Z,337.00
2023-03-27T10:08:56.440Z,337.00
2023-03-27T10:09:56.426Z,335.00
2023-03-27T10:10:56.618Z,334.00
2023-03-27T10:11:56.431Z,334.00
2023-03-27T10:12:56.402Z,344.00
2023-03-27T10:13:56.413Z,339.00
2023-03-27T10:14:56.375Z,339.00
2023-03-27T10:15:56.408Z,335.00
2023-03-27T10:16:56.374Z,341.00
2023-03-27T10:17:56.355Z,343.00
2023-03-27T10:18:56.353Z,342.00
2023-03-27T10:19:56.302Z,340.00
2023-03-27T10:20:56.498Z,341.00
2023-03-27T10:21:56.297Z,338.00
2023-03-27T10:22:56.232Z,345.00
2023-03-27T10:23:56.243Z,341.00
2023-03-27T10:24:56.224Z,341.00
2023-03-27T10:25:56.198Z,334.00
2023-03-27T10:26:56.203Z,310.00
2023-03-27T10:27:56.173Z,300.00
2023-03-27T10:28:56.148Z,308.00
2023-03-27T10:29:56.145Z,323.00
2023-03-27T10:30:56.266Z,288.00
2023-03-27T10:31:56.145Z,250.00
2023-03-27T10:32:56.187Z,256.00
2023-03-27T10:33:56.099Z,291.00
2023-03-27T10:34:56.102Z,312.00
2023-03-27T10:35:56.047Z,320.00
2023-03-27T10:36:56.013Z,348.00
2023-03-27T10:37:56.064Z,348.00
2023-03-27T10:38:55.985Z,345.00
2023-03-27T10:39:56.027Z,341.00
2023-03-27T10:40:56.087Z,323.00
2023-03-27T10:41:55.968Z,303.00
2023-03-27T10:42:55.975Z,294.00
2023-03-27T10:43:55.942Z,304.00
2023-03-27T10:44:55.989Z,316.00
2023-03-27T10:45:55.978Z,330.00
2023-03-27T10:46:55.931Z,288.00
2023-03-27T10:47:55.921Z,226.00
2023-03-27T10:48:55.889Z,234.00
2023-03-27T10:49:55.865Z,258.00
2023-03-27T10:50:55.931Z,300.00
2023-03-27T10:51:55.824Z,306.00
2023-03-27T10:52:55.909Z,316.00
2023-03-27T10:53:55.916Z,321.00
2023-03-27T10:54:55.768Z,324.00
2023-03-27T10:55:55.755Z,323.00
2023-03-27T10:56:55.813Z,322.00
2023-03-27T10:57:55.752Z,324.00
2023-03-27T10:58:55.746Z,368.00
2023-03-27T10:59:55.744Z,360.00
2023-03-27T11:00:55.912Z,354.00
2023-03-27T11:01:55.703Z,348.00
2023-03-27T11:02:55.691Z,345.00
2023-03-27T11:03:55.689Z,343.00
2023-03-27T11:04:55.667Z,340.00
2023-03-27T11:05:55.657Z,335.00
2023-03-27T11:06:55.620Z,296.00
2023-03-27T11:07:55.594Z,306.00
2023-03-27T11:08:55.604Z,283.00
2023-03-27T11:09:55.571Z,293.00
2023-03-27T11:10:55.708Z,309.00
2023-03-27T11:11:55.550Z,375.00
2023-03-27T11:12:55.579Z,241.00
2023-03-27T11:13:55.549Z,238.00
2023-03-27T11:14:55.805Z,232.00
2023-03-27T11:15:55.513Z,251.00
2023-03-27T11:16:55.571Z,385.00
2023-03-27T11:17:55.547Z,392.00
2023-03-27T11:18:55.478Z,359.00
2023-03-27T11:19:55.474Z,293.00
2023-03-27T11:20:55.513Z,375.00
2023-03-27T11:21:55.414Z,365.00
2023-03-27T11:22:55.389Z,277.00
2023-03-27T11:23:55.405Z,320.00
2023-03-27T11:24:55.380Z,387.00
2023-03-27T11:25:55.367Z,372.00
2023-03-27T11:26:55.378Z,366.00
2023-03-27T11:27:55.322Z,366.00
2023-03-27T11:28:55.373Z,367.00
2023-03-27T11:29:55.307Z,368.00
2023-03-27T11:30:55.517Z,370.00
2023-03-27T11:31:55.374Z,366.00
2023-03-27T11:32:55.318Z,292.00
2023-03-27T11:33:55.272Z,282.00
2023-03-27T11:34:55.278Z,311.00
2023-03-27T11:35:55.230Z,260.00
2023-03-27T11:36:55.300Z,249.00
2023-03-27T11:37:55.236Z,315.00
2023-03-27T11:38:55.235Z,331.00
2023-03-27T11:39:55.227Z,335.00
2023-03-27T11:40:55.369Z,322.00
2023-03-27T11:41:55.181Z,326.00
2023-03-27T11:42:55.150Z,335.00
2023-03-27T11:43:55.142Z,354.00
2023-03-27T11:44:55.120Z,350.00
2023-03-27T11:45:55.109Z,335.00
2023-03-27T11:46:55.079Z,339.00
2023-03-27T11:47:55.160Z,302.00
2023-03-27T11:48:55.076Z,336.00
2023-03-27T11:49:55.030Z,338.00
2023-03-27T11:50:55.299Z,330.00
2023-03-27T11:51:55.010Z,324.00
2023-03-27T11:52:55.031Z,323.00
2023-03-27T11:53:54.974Z,326.00
2023-03-27T11:54:55.006Z,327.00
2023-03-27T11:55:54.980Z,328.00
2023-03-27T11:56:54.972Z,330.00
2023-03-27T11:57:54.940Z,330.00
2023-03-27T11:58:54.945Z,329.00
2023-03-27T11:59:54.940Z,332.00
2023-03-27T12:00:55.098Z,334.00
2023-03-27T12:01:54.907Z,335.00
2023-03-27T12:02:54.954Z,336.00
2023-03-27T12:03:55.028Z,341.00
2023-03-27T12:04:54.857Z,340.00
2023-03-27T12:05:54.844Z,346.00
2023-03-27T12:06:54.802Z,347.00
2023-03-27T12:07:54.802Z,345.00
2023-03-27T12:08:54.814Z,347.00
2023-03-27T12:09:54.779Z,348.00
2023-03-27T12:10:54.874Z,349.00
2023-03-27T12:11:54.742Z,351.00
2023-03-27T12:12:54.751Z,352.00
2023-03-27T12:14:01.663Z,353.00
2023-03-27T12:14:54.736Z,354.00
2023-03-27T12:15:54.677Z,355.00
2023-03-27T12:16:54.698Z,352.00
2023-03-27T12:17:54.703Z,352.00
2023-03-27T12:19:03.744Z,350.00
2023-03-27T12:19:54.632Z,360.00
2023-03-27T12:20:54.613Z,369.00
2023-03-27T12:21:54.610Z,374.00
2023-03-27T12:22:54.611Z,373.00
2023-03-27T12:23:54.590Z,369.00
2023-03-27T12:24:59.749Z,366.00
2023-03-27T12:25:54.553Z,357.00
2023-03-27T12:26:54.572Z,353.00
2023-03-27T12:27:54.597Z,350.00